sensor_id;sensor_type;location;lat;lon;timestamp;P1;durP1;ratioP1;P2;durP2;ratioP2
41631;SDS011;37452;51.938;4.624;2022-11-11T00:02:21;23.98;;;11.25;;
41631;SDS011;37452;51.938;4.624;2022-11-11T00:04:46;21.88;;;10.70;;
41631;SDS011;37452;51.938;4.624;2022-11-11T00:07:11;25.23;;;11.80;;
41631;SDS011;37452;51.938;4.624;2022-11-11T00:09:37;25.63;;;11.02;;
41631;SDS011;37452;51.938;4.624;2022-11-11T00:12:02;22.60;;;12.75;;
41631;SDS011;37452;51.938;4.624;2022-11-11T00:14:27;24.67;;;12.65;;
41631;SDS011;37452;51.938;4.624;2022-11-11T00:16:53;24.73;;;12.35;;
41631;SDS011;37452;51.938;4.624;2022-11-11T00:19:36;21.90;;;11.75;;
41631;SDS011;37452;51.938;4.624;2022-11-11T00:22:20;25.85;;;13.00;;
41631;SDS011;37452;51.938;4.624;2022-11-11T00:25:05;25.75;;;12.27;;
41631;SDS011;37452;51.938;4.624;2022-11-11T00:27:31;30.25;;;12.75;;
41631;SDS011;37452;51.938;4.624;2022-11-11T00:29:56;22.20;;;12.18;;
41631;SDS011;37452;51.938;4.624;2022-11-11T00:32:22;25.08;;;12.95;;
41631;SDS011;37452;51.938;4.624;2022-11-11T00:34:47;21.38;;;12.32;;
41631;SDS011;37452;51.938;4.624;2022-11-11T00:37:32;27.77;;;12.85;;
41631;SDS011;37452;51.938;4.624;2022-11-11T00:39:58;31.52;;;13.40;;
41631;SDS011;37452;51.938;4.624;2022-11-11T00:42:23;21.45;;;11.70;;
41631;SDS011;37452;51.938;4.624;2022-11-11T00:44:49;24.10;;;12.85;;
41631;SDS011;37452;51.938;4.624;2022-11-11T00:47:14;29.55;;;13.18;;
41631;SDS011;37452;51.938;4.624;2022-11-11T00:49:58;30.73;;;11.90;;
41631;SDS011;37452;51.938;4.624;2022-11-11T00:52:46;26.95;;;12.05;;
41631;SDS011;37452;51.938;4.624;2022-11-11T00:55:12;32.25;;;12.70;;
41631;SDS011;37452;51.938;4.624;2022-11-11T00:57:38;23.83;;;11.70;;
41631;SDS011;37452;51.938;4.624;2022-11-11T01:00:03;34.10;;;13.73;;
41631;SDS011;37452;51.938;4.624;2022-11-11T01:02:29;26.73;;;13.70;;
41631;SDS011;37452;51.938;4.624;2022-11-11T01:04:55;24.33;;;13.63;;
41631;SDS011;37452;51.938;4.624;2022-11-11T01:07:20;23.90;;;13.40;;
41631;SDS011;37452;51.938;4.624;2022-11-11T01:09:45;27.10;;;13.77;;
41631;SDS011;37452;51.938;4.624;2022-11-11T01:12:11;25.20;;;12.77;;
41631;SDS011;37452;51.938;4.624;2022-11-11T01:14:36;26.98;;;13.40;;
41631;SDS011;37452;51.938;4.624;2022-11-11T01:17:01;28.13;;;13.23;;
41631;SDS011;37452;51.938;4.624;2022-11-11T01:19:28;27.85;;;13.68;;
41631;SDS011;37452;51.938;4.624;2022-11-11T01:21:54;28.45;;;14.05;;
41631;SDS011;37452;51.938;4.624;2022-11-11T01:24:19;23.70;;;13.18;;
41631;SDS011;37452;51.938;4.624;2022-11-11T01:26:44;32.78;;;14.13;;
41631;SDS011;37452;51.938;4.624;2022-11-11T01:29:10;24.45;;;14.15;;
41631;SDS011;37452;51.938;4.624;2022-11-11T01:31:35;28.48;;;14.52;;
41631;SDS011;37452;51.938;4.624;2022-11-11T01:34:00;26.00;;;13.63;;
41631;SDS011;37452;51.938;4.624;2022-11-11T01:36:26;32.28;;;15.10;;
41631;SDS011;37452;51.938;4.624;2022-11-11T01:38:52;28.95;;;13.90;;
41631;SDS011;37452;51.938;4.624;2022-11-11T01:41:24;29.90;;;14.32;;
41631;SDS011;37452;51.938;4.624;2022-11-11T01:52:05;27.08;;;13.20;;
41631;SDS011;37452;51.938;4.624;2022-11-11T01:57:44;29.60;;;14.13;;
41631;SDS011;37452;51.938;4.624;2022-11-11T02:00:13;34.92;;;15.20;;
41631;SDS011;37452;51.938;4.624;2022-11-11T02:02:43;31.58;;;14.70;;
41631;SDS011;37452;51.938;4.624;2022-11-11T02:05:13;33.22;;;14.50;;
41631;SDS011;37452;51.938;4.624;2022-11-11T02:08:00;34.60;;;15.27;;
41631;SDS011;37452;51.938;4.624;2022-11-11T02:10:29;23.77;;;14.40;;
41631;SDS011;37452;51.938;4.624;2022-11-11T02:12:56;30.55;;;14.88;;
41631;SDS011;37452;51.938;4.624;2022-11-11T02:15:40;29.77;;;14.27;;
41631;SDS011;37452;51.938;4.624;2022-11-11T02:18:05;32.28;;;15.88;;
41631;SDS011;37452;51.938;4.624;2022-11-11T02:20:41;30.17;;;15.13;;
41631;SDS011;37452;51.938;4.624;2022-11-11T02:23:16;35.80;;;16.05;;
41631;SDS011;37452;51.938;4.624;2022-11-11T02:25:52;36.58;;;15.85;;
41631;SDS011;37452;51.938;4.624;2022-11-11T02:28:20;35.75;;;17.20;;
41631;SDS011;37452;51.938;4.624;2022-11-11T02:30:46;32.15;;;15.20;;
41631;SDS011;37452;51.938;4.624;2022-11-11T02:33:11;31.95;;;14.88;;
41631;SDS011;37452;51.938;4.624;2022-11-11T02:35:37;38.75;;;16.33;;
41631;SDS011;37452;51.938;4.624;2022-11-11T02:38:06;30.10;;;15.52;;
41631;SDS011;37452;51.938;4.624;2022-11-11T02:40:42;32.05;;;16.08;;
41631;SDS011;37452;51.938;4.624;2022-11-11T02:43:28;34.35;;;17.60;;
41631;SDS011;37452;51.938;4.624;2022-11-11T02:45:55;37.03;;;16.70;;
41631;SDS011;37452;51.938;4.624;2022-11-11T02:48:21;38.03;;;17.95;;
41631;SDS011;37452;51.938;4.624;2022-11-11T02:53:12;30.58;;;16.25;;
41631;SDS011;37452;51.938;4.624;2022-11-11T02:55:37;31.15;;;15.40;;
41631;SDS011;37452;51.938;4.624;2022-11-11T02:58:02;28.20;;;13.98;;
41631;SDS011;37452;51.938;4.624;2022-11-11T03:00:28;34.55;;;15.75;;
41631;SDS011;37452;51.938;4.624;2022-11-11T03:02:53;30.50;;;14.55;;
41631;SDS011;37452;51.938;4.624;2022-11-11T03:05:18;32.03;;;16.55;;
41631;SDS011;37452;51.938;4.624;2022-11-11T03:07:44;33.13;;;15.00;;
41631;SDS011;37452;51.938;4.624;2022-11-11T03:10:10;32.83;;;14.73;;
41631;SDS011;37452;51.938;4.624;2022-11-11T03:12:35;34.83;;;16.23;;
41631;SDS011;37452;51.938;4.624;2022-11-11T03:15:00;34.47;;;15.43;;
41631;SDS011;37452;51.938;4.624;2022-11-11T03:17:26;30.50;;;15.20;;
41631;SDS011;37452;51.938;4.624;2022-11-11T03:20:08;37.38;;;16.48;;
41631;SDS011;37452;51.938;4.624;2022-11-11T03:25:29;33.40;;;15.57;;
41631;SDS011;37452;51.938;4.624;2022-11-11T03:28:14;28.80;;;14.40;;
41631;SDS011;37452;51.938;4.624;2022-11-11T03:33:08;32.00;;;14.68;;
41631;SDS011;37452;51.938;4.624;2022-11-11T03:35:33;29.63;;;14.27;;
41631;SDS011;37452;51.938;4.624;2022-11-11T03:37:59;31.17;;;14.82;;
41631;SDS011;37452;51.938;4.624;2022-11-11T03:40:43;33.00;;;14.73;;
41631;SDS011;37452;51.938;4.624;2022-11-11T03:43:10;32.45;;;14.40;;
41631;SDS011;37452;51.938;4.624;2022-11-11T03:45:36;31.13;;;15.50;;
41631;SDS011;37452;51.938;4.624;2022-11-11T03:48:02;29.20;;;14.27;;
41631;SDS011;37452;51.938;4.624;2022-11-11T03:50:28;30.38;;;13.60;;
41631;SDS011;37452;51.938;4.624;2022-11-11T03:52:53;29.52;;;13.93;;
41631;SDS011;37452;51.938;4.624;2022-11-11T03:55:18;29.13;;;14.18;;
41631;SDS011;37452;51.938;4.624;2022-11-11T03:57:44;30.55;;;14.30;;
41631;SDS011;37452;51.938;4.624;2022-11-11T04:00:14;31.58;;;14.18;;
41631;SDS011;37452;51.938;4.624;2022-11-11T04:02:41;27.58;;;14.07;;
41631;SDS011;37452;51.938;4.624;2022-11-11T04:05:25;30.70;;;15.50;;
41631;SDS011;37452;51.938;4.624;2022-11-11T04:08:12;34.28;;;15.20;;
41631;SDS011;37452;51.938;4.624;2022-11-11T04:10:58;27.05;;;14.32;;
41631;SDS011;37452;51.938;4.624;2022-11-11T04:13:27;33.95;;;15.27;;
41631;SDS011;37452;51.938;4.624;2022-11-11T04:16:12;30.15;;;15.00;;
41631;SDS011;37452;51.938;4.624;2022-11-11T04:18:37;29.27;;;15.07;;
41631;SDS011;37452;51.938;4.624;2022-11-11T04:21:22;35.65;;;14.55;;
41631;SDS011;37452;51.938;4.624;2022-11-11T04:24:07;29.25;;;14.07;;
41631;SDS011;37452;51.938;4.624;2022-11-11T04:27:02;30.65;;;15.32;;
41631;SDS011;37452;51.938;4.624;2022-11-11T04:29:30;26.02;;;13.73;;
41631;SDS011;37452;51.938;4.624;2022-11-11T04:34:48;33.55;;;14.40;;
41631;SDS011;37452;51.938;4.624;2022-11-11T04:37:18;29.27;;;14.05;;
41631;SDS011;37452;51.938;4.624;2022-11-11T04:39:44;28.40;;;14.18;;
41631;SDS011;37452;51.938;4.624;2022-11-11T04:42:29;28.27;;;13.52;;
41631;SDS011;37452;51.938;4.624;2022-11-11T04:44:56;28.83;;;13.50;;
41631;SDS011;37452;51.938;4.624;2022-11-11T04:50:41;31.15;;;14.13;;
41631;SDS011;37452;51.938;4.624;2022-11-11T04:53:09;24.95;;;13.35;;
41631;SDS011;37452;51.938;4.624;2022-11-11T04:55:36;27.17;;;13.00;;
41631;SDS011;37452;51.938;4.624;2022-11-11T04:58:22;31.67;;;14.45;;
41631;SDS011;37452;51.938;4.624;2022-11-11T05:00:50;31.40;;;13.60;;
41631;SDS011;37452;51.938;4.624;2022-11-11T05:03:15;33.08;;;14.23;;
41631;SDS011;37452;51.938;4.624;2022-11-11T05:08:41;30.30;;;12.73;;
41631;SDS011;37452;51.938;4.624;2022-11-11T05:13:54;29.23;;;13.95;;
41631;SDS011;37452;51.938;4.624;2022-11-11T05:16:40;27.27;;;13.75;;
41631;SDS011;37452;51.938;4.624;2022-11-11T05:19:26;36.83;;;15.25;;
41631;SDS011;37452;51.938;4.624;2022-11-11T05:22:12;25.35;;;13.80;;
41631;SDS011;37452;51.938;4.624;2022-11-11T05:24:43;24.80;;;13.55;;
41631;SDS011;37452;51.938;4.624;2022-11-11T05:27:27;27.10;;;14.50;;
41631;SDS011;37452;51.938;4.624;2022-11-11T05:29:53;24.92;;;13.98;;
41631;SDS011;37452;51.938;4.624;2022-11-11T05:32:19;23.42;;;12.57;;
41631;SDS011;37452;51.938;4.624;2022-11-11T05:34:45;29.08;;;14.02;;
41631;SDS011;37452;51.938;4.624;2022-11-11T05:37:11;29.90;;;14.43;;
41631;SDS011;37452;51.938;4.624;2022-11-11T05:39:36;27.10;;;13.25;;
41631;SDS011;37452;51.938;4.624;2022-11-11T05:42:02;29.13;;;13.88;;
41631;SDS011;37452;51.938;4.624;2022-11-11T05:46:53;26.27;;;13.05;;
41631;SDS011;37452;51.938;4.624;2022-11-11T05:49:18;20.83;;;12.45;;
41631;SDS011;37452;51.938;4.624;2022-11-11T05:51:44;32.05;;;12.85;;
41631;SDS011;37452;51.938;4.624;2022-11-11T05:54:11;28.05;;;13.40;;
41631;SDS011;37452;51.938;4.624;2022-11-11T05:56:37;32.25;;;12.05;;
41631;SDS011;37452;51.938;4.624;2022-11-11T05:59:03;29.13;;;13.50;;
41631;SDS011;37452;51.938;4.624;2022-11-11T06:03:55;27.85;;;12.95;;
41631;SDS011;37452;51.938;4.624;2022-11-11T06:06:20;24.50;;;13.90;;
41631;SDS011;37452;51.938;4.624;2022-11-11T06:08:46;30.05;;;14.45;;
41631;SDS011;37452;51.938;4.624;2022-11-11T06:11:11;27.90;;;13.80;;
41631;SDS011;37452;51.938;4.624;2022-11-11T06:13:36;29.38;;;15.38;;
41631;SDS011;37452;51.938;4.624;2022-11-11T06:16:02;31.88;;;15.60;;
41631;SDS011;37452;51.938;4.624;2022-11-11T06:18:28;30.20;;;14.65;;
41631;SDS011;37452;51.938;4.624;2022-11-11T06:20:54;29.08;;;15.43;;
41631;SDS011;37452;51.938;4.624;2022-11-11T06:23:21;29.27;;;14.20;;
41631;SDS011;37452;51.938;4.624;2022-11-11T06:25:47;27.52;;;15.25;;
41631;SDS011;37452;51.938;4.624;2022-11-11T06:28:31;29.92;;;14.77;;
41631;SDS011;37452;51.938;4.624;2022-11-11T06:30:57;34.08;;;15.00;;
41631;SDS011;37452;51.938;4.624;2022-11-11T06:33:22;35.72;;;16.60;;
41631;SDS011;37452;51.938;4.624;2022-11-11T06:35:48;27.98;;;14.82;;
41631;SDS011;37452;51.938;4.624;2022-11-11T06:38:13;28.52;;;15.98;;
41631;SDS011;37452;51.938;4.624;2022-11-11T06:40:41;37.67;;;15.52;;
41631;SDS011;37452;51.938;4.624;2022-11-11T06:43:06;32.50;;;17.02;;
41631;SDS011;37452;51.938;4.624;2022-11-11T06:45:32;31.35;;;15.75;;
41631;SDS011;37452;51.938;4.624;2022-11-11T06:47:59;29.10;;;16.15;;
41631;SDS011;37452;51.938;4.624;2022-11-11T06:50:24;30.88;;;16.70;;
41631;SDS011;37452;51.938;4.624;2022-11-11T06:52:50;31.70;;;16.30;;
41631;SDS011;37452;51.938;4.624;2022-11-11T06:55:16;27.25;;;14.93;;
41631;SDS011;37452;51.938;4.624;2022-11-11T06:57:41;27.40;;;14.68;;
41631;SDS011;37452;51.938;4.624;2022-11-11T07:00:07;23.35;;;12.85;;
41631;SDS011;37452;51.938;4.624;2022-11-11T07:02:33;28.35;;;13.25;;
41631;SDS011;37452;51.938;4.624;2022-11-11T07:04:58;34.53;;;13.93;;
41631;SDS011;37452;51.938;4.624;2022-11-11T07:07:24;25.38;;;13.35;;
41631;SDS011;37452;51.938;4.624;2022-11-11T07:09:49;32.38;;;13.20;;
41631;SDS011;37452;51.938;4.624;2022-11-11T07:12:14;25.23;;;13.55;;
41631;SDS011;37452;51.938;4.624;2022-11-11T07:14:41;33.63;;;16.10;;
41631;SDS011;37452;51.938;4.624;2022-11-11T07:17:07;26.25;;;14.45;;
41631;SDS011;37452;51.938;4.624;2022-11-11T07:19:32;25.38;;;13.50;;
41631;SDS011;37452;51.938;4.624;2022-11-11T07:21:57;26.47;;;14.40;;
41631;SDS011;37452;51.938;4.624;2022-11-11T07:24:23;29.50;;;14.90;;
41631;SDS011;37452;51.938;4.624;2022-11-11T07:26:48;28.85;;;14.23;;
41631;SDS011;37452;51.938;4.624;2022-11-11T07:29:13;29.67;;;14.82;;
41631;SDS011;37452;51.938;4.624;2022-11-11T07:31:39;26.50;;;15.07;;
41631;SDS011;37452;51.938;4.624;2022-11-11T07:34:05;26.83;;;14.32;;
41631;SDS011;37452;51.938;4.624;2022-11-11T07:36:30;33.05;;;16.83;;
41631;SDS011;37452;51.938;4.624;2022-11-11T07:38:55;23.55;;;14.82;;
41631;SDS011;37452;51.938;4.624;2022-11-11T07:41:21;28.20;;;15.10;;
41631;SDS011;37452;51.938;4.624;2022-11-11T07:43:46;29.13;;;14.73;;
41631;SDS011;37452;51.938;4.624;2022-11-11T07:46:11;27.17;;;14.90;;
41631;SDS011;37452;51.938;4.624;2022-11-11T07:48:37;35.40;;;15.55;;
41631;SDS011;37452;51.938;4.624;2022-11-11T07:51:02;28.77;;;15.00;;
41631;SDS011;37452;51.938;4.624;2022-11-11T07:53:28;28.27;;;14.48;;
41631;SDS011;37452;51.938;4.624;2022-11-11T07:55:53;30.85;;;15.48;;
41631;SDS011;37452;51.938;4.624;2022-11-11T07:58:19;27.58;;;16.00;;
41631;SDS011;37452;51.938;4.624;2022-11-11T08:00:44;30.52;;;16.00;;
41631;SDS011;37452;51.938;4.624;2022-11-11T08:03:09;24.17;;;13.68;;
41631;SDS011;37452;51.938;4.624;2022-11-11T08:05:35;27.83;;;13.98;;
41631;SDS011;37452;51.938;4.624;2022-11-11T08:08:04;27.50;;;15.13;;
41631;SDS011;37452;51.938;4.624;2022-11-11T08:10:33;25.73;;;14.45;;
41631;SDS011;37452;51.938;4.624;2022-11-11T08:15:43;24.10;;;13.80;;
41631;SDS011;37452;51.938;4.624;2022-11-11T08:18:08;24.75;;;13.68;;
41631;SDS011;37452;51.938;4.624;2022-11-11T08:20:34;32.53;;;14.77;;
41631;SDS011;37452;51.938;4.624;2022-11-11T08:22:59;24.60;;;13.40;;
41631;SDS011;37452;51.938;4.624;2022-11-11T08:25:28;26.00;;;14.48;;
41631;SDS011;37452;51.938;4.624;2022-11-11T08:28:01;26.27;;;13.60;;
41631;SDS011;37452;51.938;4.624;2022-11-11T08:30:28;27.45;;;13.75;;
41631;SDS011;37452;51.938;4.624;2022-11-11T08:32:57;26.38;;;12.73;;
41631;SDS011;37452;51.938;4.624;2022-11-11T08:35:30;28.38;;;13.68;;
41631;SDS011;37452;51.938;4.624;2022-11-11T08:40:25;27.90;;;13.65;;
41631;SDS011;37452;51.938;4.624;2022-11-11T08:42:51;24.88;;;12.85;;
41631;SDS011;37452;51.938;4.624;2022-11-11T08:45:20;23.15;;;12.27;;
41631;SDS011;37452;51.938;4.624;2022-11-11T08:47:45;26.30;;;13.85;;
41631;SDS011;37452;51.938;4.624;2022-11-11T08:50:10;24.77;;;13.10;;
41631;SDS011;37452;51.938;4.624;2022-11-11T08:52:36;25.02;;;13.48;;
41631;SDS011;37452;51.938;4.624;2022-11-11T08:55:01;25.92;;;12.75;;
41631;SDS011;37452;51.938;4.624;2022-11-11T08:57:27;26.00;;;13.02;;
41631;SDS011;37452;51.938;4.624;2022-11-11T08:59:52;28.73;;;13.75;;
41631;SDS011;37452;51.938;4.624;2022-11-11T09:02:17;24.13;;;12.30;;
41631;SDS011;37452;51.938;4.624;2022-11-11T09:04:43;25.40;;;12.73;;
41631;SDS011;37452;51.938;4.624;2022-11-11T09:07:09;24.55;;;12.98;;
41631;SDS011;37452;51.938;4.624;2022-11-11T09:09:35;20.60;;;12.00;;
41631;SDS011;37452;51.938;4.624;2022-11-11T09:12:01;27.42;;;12.00;;
41631;SDS011;37452;51.938;4.624;2022-11-11T09:14:26;24.85;;;13.07;;
41631;SDS011;37452;51.938;4.624;2022-11-11T09:16:51;24.88;;;11.68;;
41631;SDS011;37452;51.938;4.624;2022-11-11T09:19:17;28.67;;;11.60;;
41631;SDS011;37452;51.938;4.624;2022-11-11T09:21:42;23.92;;;12.55;;
41631;SDS011;37452;51.938;4.624;2022-11-11T09:24:08;21.15;;;10.90;;
41631;SDS011;37452;51.938;4.624;2022-11-11T09:26:33;20.67;;;11.10;;
41631;SDS011;37452;51.938;4.624;2022-11-11T09:28:58;25.25;;;12.18;;
41631;SDS011;37452;51.938;4.624;2022-11-11T09:31:24;24.67;;;11.65;;
41631;SDS011;37452;51.938;4.624;2022-11-11T09:33:49;24.65;;;12.50;;
41631;SDS011;37452;51.938;4.624;2022-11-11T09:36:15;25.73;;;11.57;;
41631;SDS011;37452;51.938;4.624;2022-11-11T09:38:41;23.17;;;11.63;;
41631;SDS011;37452;51.938;4.624;2022-11-11T09:47:10;20.83;;;11.10;;
41631;SDS011;37452;51.938;4.624;2022-11-11T09:50:05;24.10;;;11.82;;
41631;SDS011;37452;51.938;4.624;2022-11-11T09:57:45;23.40;;;11.93;;
41631;SDS011;37452;51.938;4.624;2022-11-11T10:00:17;24.98;;;11.85;;
41631;SDS011;37452;51.938;4.624;2022-11-11T10:02:48;18.27;;;10.55;;
41631;SDS011;37452;51.938;4.624;2022-11-11T10:05:30;20.70;;;10.63;;
41631;SDS011;37452;51.938;4.624;2022-11-11T10:08:12;23.08;;;11.02;;
41631;SDS011;37452;51.938;4.624;2022-11-11T10:10:41;22.08;;;9.63;;
41631;SDS011;37452;51.938;4.624;2022-11-11T10:13:11;21.63;;;10.57;;
41631;SDS011;37452;51.938;4.624;2022-11-11T10:15:48;21.15;;;10.98;;
41631;SDS011;37452;51.938;4.624;2022-11-11T10:18:38;19.05;;;9.95;;
41631;SDS011;37452;51.938;4.624;2022-11-11T10:21:14;21.27;;;10.40;;
41631;SDS011;37452;51.938;4.624;2022-11-11T10:23:47;18.33;;;9.55;;
41631;SDS011;37452;51.938;4.624;2022-11-11T10:26:19;20.02;;;9.70;;
41631;SDS011;37452;51.938;4.624;2022-11-11T10:28:51;18.15;;;9.77;;
41631;SDS011;37452;51.938;4.624;2022-11-11T10:31:18;20.10;;;9.75;;
41631;SDS011;37452;51.938;4.624;2022-11-11T10:33:59;20.73;;;9.80;;
41631;SDS011;37452;51.938;4.624;2022-11-11T10:36:26;24.73;;;9.82;;
41631;SDS011;37452;51.938;4.624;2022-11-11T10:38:55;19.95;;;10.43;;
41631;SDS011;37452;51.938;4.624;2022-11-11T10:41:25;21.45;;;10.32;;
41631;SDS011;37452;51.938;4.624;2022-11-11T10:43:53;19.05;;;9.70;;
41631;SDS011;37452;51.938;4.624;2022-11-11T10:46:23;21.75;;;11.20;;
41631;SDS011;37452;51.938;4.624;2022-11-11T10:48:56;16.05;;;9.38;;
41631;SDS011;37452;51.938;4.624;2022-11-11T10:51:27;19.13;;;9.15;;
41631;SDS011;37452;51.938;4.624;2022-11-11T10:59:28;18.95;;;9.60;;
41631;SDS011;37452;51.938;4.624;2022-11-11T11:02:03;22.05;;;9.63;;
41631;SDS011;37452;51.938;4.624;2022-11-11T11:04:36;16.98;;;8.27;;
41631;SDS011;37452;51.938;4.624;2022-11-11T11:07:08;21.35;;;9.50;;
41631;SDS011;37452;51.938;4.624;2022-11-11T11:09:42;16.42;;;8.68;;
41631;SDS011;37452;51.938;4.624;2022-11-11T11:12:21;16.98;;;9.50;;
41631;SDS011;37452;51.938;4.624;2022-11-11T11:15:17;16.75;;;8.48;;
41631;SDS011;37452;51.938;4.624;2022-11-11T11:17:55;22.25;;;8.30;;
41631;SDS011;37452;51.938;4.624;2022-11-11T11:20:22;17.88;;;8.75;;
41631;SDS011;37452;51.938;4.624;2022-11-11T11:22:52;21.23;;;9.00;;
41631;SDS011;37452;51.938;4.624;2022-11-11T11:25:20;18.35;;;8.10;;
41631;SDS011;37452;51.938;4.624;2022-11-11T11:27:46;18.40;;;8.18;;
41631;SDS011;37452;51.938;4.624;2022-11-11T11:30:24;14.75;;;8.25;;
41631;SDS011;37452;51.938;4.624;2022-11-11T11:32:57;17.50;;;7.85;;
41631;SDS011;37452;51.938;4.624;2022-11-11T11:35:30;13.55;;;7.20;;
41631;SDS011;37452;51.938;4.624;2022-11-11T11:37:57;12.52;;;7.68;;
41631;SDS011;37452;51.938;4.624;2022-11-11T11:40:22;13.48;;;7.47;;
41631;SDS011;37452;51.938;4.624;2022-11-11T11:42:48;14.05;;;8.10;;
41631;SDS011;37452;51.938;4.624;2022-11-11T11:45:14;13.65;;;7.97;;
41631;SDS011;37452;51.938;4.624;2022-11-11T11:48:02;16.00;;;8.98;;
41631;SDS011;37452;51.938;4.624;2022-11-11T11:50:40;14.52;;;8.13;;
41631;SDS011;37452;51.938;4.624;2022-11-11T11:56:17;14.30;;;7.60;;
41631;SDS011;37452;51.938;4.624;2022-11-11T12:03:58;13.93;;;8.27;;
41631;SDS011;37452;51.938;4.624;2022-11-11T12:06:56;16.02;;;7.63;;
41631;SDS011;37452;51.938;4.624;2022-11-11T12:09:49;11.50;;;7.65;;
41631;SDS011;37452;51.938;4.624;2022-11-11T12:12:31;11.52;;;7.25;;
41631;SDS011;37452;51.938;4.624;2022-11-11T12:15:38;12.25;;;7.63;;
41631;SDS011;37452;51.938;4.624;2022-11-11T12:21:16;12.60;;;7.75;;
41631;SDS011;37452;51.938;4.624;2022-11-11T12:26:38;15.32;;;7.63;;
41631;SDS011;37452;51.938;4.624;2022-11-11T12:30:03;14.05;;;7.40;;
41631;SDS011;37452;51.938;4.624;2022-11-11T12:41:43;14.70;;;6.75;;
41631;SDS011;37452;51.938;4.624;2022-11-11T12:44:10;9.32;;;6.38;;
41631;SDS011;37452;51.938;4.624;2022-11-11T12:51:58;11.80;;;6.65;;
41631;SDS011;37452;51.938;4.624;2022-11-11T13:00:44;13.85;;;6.05;;
41631;SDS011;37452;51.938;4.624;2022-11-11T13:11:47;9.68;;;5.68;;
41631;SDS011;37452;51.938;4.624;2022-11-11T13:14:22;9.27;;;4.72;;
41631;SDS011;37452;51.938;4.624;2022-11-11T13:17:11;11.68;;;5.10;;
41631;SDS011;37452;51.938;4.624;2022-11-11T13:22:13;10.45;;;5.53;;
41631;SDS011;37452;51.938;4.624;2022-11-11T13:25:01;7.28;;;4.65;;
41631;SDS011;37452;51.938;4.624;2022-11-11T13:27:34;11.55;;;5.03;;
41631;SDS011;37452;51.938;4.624;2022-11-11T13:30:05;10.23;;;4.78;;
41631;SDS011;37452;51.938;4.624;2022-11-11T13:32:59;7.38;;;4.05;;
41631;SDS011;37452;51.938;4.624;2022-11-11T13:38:22;14.38;;;5.47;;
41631;SDS011;37452;51.938;4.624;2022-11-11T13:40:54;15.32;;;5.15;;
41631;SDS011;37452;51.938;4.624;2022-11-11T13:43:24;13.57;;;5.38;;
41631;SDS011;37452;51.938;4.624;2022-11-11T13:45:52;10.35;;;4.60;;
41631;SDS011;37452;51.938;4.624;2022-11-11T13:48:22;13.00;;;5.05;;
41631;SDS011;37452;51.938;4.624;2022-11-11T13:50:51;6.90;;;4.95;;
41631;SDS011;37452;51.938;4.624;2022-11-11T13:53:24;11.52;;;4.75;;
41631;SDS011;37452;51.938;4.624;2022-11-11T13:55:52;12.68;;;4.82;;
41631;SDS011;37452;51.938;4.624;2022-11-11T13:58:27;7.53;;;4.70;;
41631;SDS011;37452;51.938;4.624;2022-11-11T14:00:57;10.85;;;4.68;;
41631;SDS011;37452;51.938;4.624;2022-11-11T14:06:37;11.25;;;5.32;;
41631;SDS011;37452;51.938;4.624;2022-11-11T14:13:51;11.48;;;5.35;;
41631;SDS011;37452;51.938;4.624;2022-11-11T14:24:21;11.30;;;5.68;;
41631;SDS011;37452;51.938;4.624;2022-11-11T14:27:03;14.80;;;5.82;;
41631;SDS011;37452;51.938;4.624;2022-11-11T14:29:50;11.13;;;4.78;;
41631;SDS011;37452;51.938;4.624;2022-11-11T14:37:57;9.80;;;5.03;;
41631;SDS011;37452;51.938;4.624;2022-11-11T14:40:40;13.80;;;5.35;;
41631;SDS011;37452;51.938;4.624;2022-11-11T14:46:06;10.65;;;5.45;;
41631;SDS011;37452;51.938;4.624;2022-11-11T14:51:37;11.15;;;5.15;;
41631;SDS011;37452;51.938;4.624;2022-11-11T14:54:14;9.82;;;5.13;;
41631;SDS011;37452;51.938;4.624;2022-11-11T14:56:44;10.35;;;5.18;;
41631;SDS011;37452;51.938;4.624;2022-11-11T14:59:20;12.32;;;5.88;;
41631;SDS011;37452;51.938;4.624;2022-11-11T15:01:49;13.38;;;4.95;;
41631;SDS011;37452;51.938;4.624;2022-11-11T15:04:17;8.10;;;4.85;;
41631;SDS011;37452;51.938;4.624;2022-11-11T15:15:02;10.13;;;5.18;;
41631;SDS011;37452;51.938;4.624;2022-11-11T15:34:37;12.27;;;5.47;;
41631;SDS011;37452;51.938;4.624;2022-11-11T15:37:25;12.25;;;6.70;;
41631;SDS011;37452;51.938;4.624;2022-11-11T15:39:52;9.73;;;5.55;;
41631;SDS011;37452;51.938;4.624;2022-11-11T15:42:27;16.73;;;6.05;;
41631;SDS011;37452;51.938;4.624;2022-11-11T15:44:53;21.77;;;11.63;;
41631;SDS011;37452;51.938;4.624;2022-11-11T15:47:22;14.32;;;9.15;;
41631;SDS011;37452;51.938;4.624;2022-11-11T15:49:48;14.45;;;8.07;;
41631;SDS011;37452;51.938;4.624;2022-11-11T15:54:50;28.10;;;12.05;;
41631;SDS011;37452;51.938;4.624;2022-11-11T15:59:56;14.52;;;8.70;;
41631;SDS011;37452;51.938;4.624;2022-11-11T16:02:23;29.65;;;16.88;;
41631;SDS011;37452;51.938;4.624;2022-11-11T16:04:55;15.55;;;9.20;;
41631;SDS011;37452;51.938;4.624;2022-11-11T16:07:24;26.65;;;15.02;;
41631;SDS011;37452;51.938;4.624;2022-11-11T16:10:06;11.93;;;5.80;;
41631;SDS011;37452;51.938;4.624;2022-11-11T16:12:46;12.95;;;6.18;;
41631;SDS011;37452;51.938;4.624;2022-11-11T16:15:49;15.27;;;7.45;;
41631;SDS011;37452;51.938;4.624;2022-11-11T16:23:32;8.00;;;5.18;;
41631;SDS011;37452;51.938;4.624;2022-11-11T16:25:58;12.63;;;5.90;;
41631;SDS011;37452;51.938;4.624;2022-11-11T16:28:28;8.55;;;5.43;;
41631;SDS011;37452;51.938;4.624;2022-11-11T16:31:18;12.60;;;5.82;;
41631;SDS011;37452;51.938;4.624;2022-11-11T16:39:33;15.23;;;7.70;;
41631;SDS011;37452;51.938;4.624;2022-11-11T16:42:03;11.77;;;6.28;;
41631;SDS011;37452;51.938;4.624;2022-11-11T16:44:39;12.15;;;6.80;;
41631;SDS011;37452;51.938;4.624;2022-11-11T16:52:25;8.63;;;4.95;;
41631;SDS011;37452;51.938;4.624;2022-11-11T16:54:53;11.00;;;5.20;;
41631;SDS011;37452;51.938;4.624;2022-11-11T16:57:27;15.05;;;5.95;;
41631;SDS011;37452;51.938;4.624;2022-11-11T17:00:00;11.02;;;4.90;;
41631;SDS011;37452;51.938;4.624;2022-11-11T17:02:28;10.80;;;5.55;;
41631;SDS011;37452;51.938;4.624;2022-11-11T17:04:55;12.93;;;6.10;;
41631;SDS011;37452;51.938;4.624;2022-11-11T17:10:13;9.80;;;5.70;;
41631;SDS011;37452;51.938;4.624;2022-11-11T17:15:16;9.02;;;4.50;;
41631;SDS011;37452;51.938;4.624;2022-11-11T17:17:44;10.63;;;4.25;;
41631;SDS011;37452;51.938;4.624;2022-11-11T17:20:14;15.35;;;4.72;;
41631;SDS011;37452;51.938;4.624;2022-11-11T17:22:48;10.27;;;5.90;;
41631;SDS011;37452;51.938;4.624;2022-11-11T17:25:14;9.88;;;6.22;;
41631;SDS011;37452;51.938;4.624;2022-11-11T17:27:40;11.75;;;6.55;;
41631;SDS011;37452;51.938;4.624;2022-11-11T17:30:06;13.65;;;7.88;;
41631;SDS011;37452;51.938;4.624;2022-11-11T17:32:32;23.48;;;15.32;;
41631;SDS011;37452;51.938;4.624;2022-11-11T17:34:58;70.63;;;39.90;;
41631;SDS011;37452;51.938;4.624;2022-11-11T17:37:23;22.58;;;13.52;;
41631;SDS011;37452;51.938;4.624;2022-11-11T17:39:49;14.57;;;9.68;;
41631;SDS011;37452;51.938;4.624;2022-11-11T17:42:14;14.10;;;9.73;;
41631;SDS011;37452;51.938;4.624;2022-11-11T17:44:40;13.45;;;8.45;;
41631;SDS011;37452;51.938;4.624;2022-11-11T17:47:05;15.73;;;8.90;;
41631;SDS011;37452;51.938;4.624;2022-11-11T17:49:31;18.58;;;8.70;;
41631;SDS011;37452;51.938;4.624;2022-11-11T17:51:56;19.02;;;7.78;;